createdAt,value
2018-12-31T00:00:30.282Z,99.20
2018-12-31T00:03:17.802Z,99.20
2018-12-31T00:06:05.862Z,99.40
2018-12-31T00:08:53.152Z,99.60
2018-12-31T00:11:40.781Z,99.80
2018-12-31T00:14:28.562Z,99.90
2018-12-31T00:17:16.250Z,99.80
2018-12-31T00:20:03.724Z,99.70
2018-12-31T00:22:50.833Z,99.80
2018-12-31T00:25:37.964Z,99.90
2018-12-31T00:28:25.812Z,99.90
2018-12-31T00:31:13.598Z,99.80
2018-12-31T00:34:01.230Z,99.80
2018-12-31T00:36:49.000Z,99.80
2018-12-31T00:39:36.216Z,99.80
2018-12-31T00:42:23.732Z,99.80
2018-12-31T00:45:11.067Z,99.90
2018-12-31T00:47:58.661Z,99.90
2018-12-31T00:50:46.227Z,99.90
2018-12-31T00:53:33.875Z,99.90
2018-12-31T00:56:21.316Z,99.90
2018-12-31T00:59:09.166Z,99.90
2018-12-31T01:01:56.798Z,99.90
2018-12-31T01:04:44.724Z,99.90
2018-12-31T01:07:32.032Z,99.90
2018-12-31T01:10:19.322Z,99.90
2018-12-31T01:13:06.933Z,99.90
2018-12-31T01:15:54.624Z,99.90
2018-12-31T01:18:41.807Z,99.70
2018-12-31T01:21:29.230Z,99.70
2018-12-31T01:24:16.680Z,99.60
2018-12-31T01:27:03.970Z,99.50
2018-12-31T01:29:51.286Z,99.60
2018-12-31T01:32:39.171Z,99.70
2018-12-31T01:35:27.156Z,99.70
2018-12-31T01:38:15.141Z,99.90
2018-12-31T01:41:02.805Z,99.90
2018-12-31T01:43:50.530Z,99.90
2018-12-31T01:46:38.407Z,99.90
2018-12-31T01:49:26.091Z,99.90
2018-12-31T01:52:13.879Z,99.90
2018-12-31T01:55:01.726Z,99.90
2018-12-31T01:57:49.853Z,99.90
2018-12-31T02:00:37.720Z,99.90
2018-12-31T02:03:25.351Z,99.90
2018-12-31T02:06:13.016Z,99.90
2018-12-31T02:09:00.814Z,99.90
2018-12-31T02:11:48.456Z,99.90
2018-12-31T02:14:36.391Z,99.90
2018-12-31T02:17:24.343Z,99.90
2018-12-31T02:20:11.777Z,99.90
2018-12-31T02:22:59.264Z,99.90
2018-12-31T02:25:46.728Z,99.90
2018-12-31T02:28:34.621Z,99.90
2018-12-31T02:31:21.944Z,99.90
2018-12-31T02:34:09.504Z,99.90
2018-12-31T02:36:57.216Z,99.80
2018-12-31T02:39:44.758Z,99.80
2018-12-31T02:42:32.165Z,99.70
2018-12-31T02:45:19.672Z,99.60
2018-12-31T02:48:07.108Z,99.50
2018-12-31T02:50:54.593Z,99.30
2018-12-31T02:53:41.696Z,99.40
2018-12-31T02:56:28.931Z,99.50
2018-12-31T02:59:16.659Z,99.40
2018-12-31T03:02:04.273Z,99.50
2018-12-31T03:04:51.519Z,99.60
2018-12-31T03:07:39.331Z,99.60
2018-12-31T03:10:26.657Z,99.70
2018-12-31T03:13:13.823Z,99.60
2018-12-31T03:16:00.964Z,99.70
2018-12-31T03:18:48.179Z,99.80
2018-12-31T03:21:35.494Z,99.80
2018-12-31T03:24:22.853Z,99.90
2018-12-31T03:27:10.708Z,99.90
2018-12-31T03:29:58.475Z,99.90
2018-12-31T03:32:45.831Z,99.90
2018-12-31T03:35:33.273Z,99.90
2018-12-31T03:38:21.035Z,99.90
2018-12-31T03:41:08.241Z,99.90
2018-12-31T03:43:55.692Z,99.90
2018-12-31T03:46:43.581Z,99.90
2018-12-31T03:49:31.079Z,99.90
2018-12-31T03:52:18.528Z,99.90
2018-12-31T03:55:05.848Z,99.90
2018-12-31T03:57:53.535Z,99.90
2018-12-31T04:00:41.290Z,99.90
2018-12-31T04:03:28.375Z,99.90
2018-12-31T04:06:16.032Z,99.90
2018-12-31T04:09:04.901Z,99.90
2018-12-31T04:11:52.364Z,99.90
2018-12-31T04:14:40.282Z,99.90
2018-12-31T04:17:28.150Z,99.70
2018-12-31T04:20:16.272Z,99.90
2018-12-31T04:23:03.938Z,99.70
2018-12-31T04:25:51.797Z,99.70
2018-12-31T04:28:39.626Z,99.70
2018-12-31T04:31:27.208Z,99.60
2018-12-31T04:34:15.050Z,99.50
2018-12-31T04:37:02.852Z,99.50
2018-12-31T04:39:50.425Z,99.50
2018-12-31T04:42:37.968Z,99.50
2018-12-31T04:45:25.611Z,99.50
2018-12-31T04:48:13.580Z,99.50
2018-12-31T04:51:01.459Z,99.70
2018-12-31T04:53:49.271Z,99.90
2018-12-31T04:56:36.743Z,99.90
2018-12-31T04:59:24.586Z,99.90
2018-12-31T05:02:12.425Z,99.90
2018-12-31T05:04:59.864Z,99.90
2018-12-31T05:07:47.017Z,99.80
2018-12-31T05:10:34.769Z,99.70
2018-12-31T05:13:22.338Z,99.60
2018-12-31T05:16:09.668Z,99.50
2018-12-31T05:18:57.532Z,99.40
2018-12-31T05:21:45.283Z,99.30
2018-12-31T05:24:33.039Z,99.20
2018-12-31T05:27:20.827Z,99.20
2018-12-31T05:30:08.672Z,99.10
2018-12-31T05:32:56.627Z,99.00
2018-12-31T05:35:44.166Z,98.90
2018-12-31T05:38:31.492Z,99.00
2018-12-31T05:41:19.019Z,99.00
2018-12-31T05:44:06.715Z,98.90
2018-12-31T05:46:54.000Z,98.90
2018-12-31T05:49:41.984Z,98.90
2018-12-31T05:52:30.241Z,98.60
2018-12-31T05:55:18.037Z,98.70
2018-12-31T05:58:05.599Z,98.80
2018-12-31T06:00:53.319Z,98.70
2018-12-31T06:03:41.014Z,98.70
2018-12-31T06:06:28.770Z,98.70
2018-12-31T06:09:16.663Z,98.70
2018-12-31T06:12:04.465Z,98.70
2018-12-31T06:14:52.129Z,98.70
2018-12-31T06:17:39.427Z,98.60
2018-12-31T06:20:26.526Z,98.70
2018-12-31T06:23:13.973Z,98.70
2018-12-31T06:26:01.811Z,98.60
2018-12-31T06:28:49.084Z,98.60
2018-12-31T06:31:36.500Z,98.60
2018-12-31T06:34:24.257Z,98.60
2018-12-31T06:37:11.880Z,98.50
2018-12-31T06:39:59.589Z,98.60
2018-12-31T06:42:46.961Z,98.60
2018-12-31T06:45:34.644Z,98.60
2018-12-31T06:48:22.239Z,98.60
2018-12-31T06:51:09.595Z,98.60
2018-12-31T06:53:57.434Z,98.50
2018-12-31T06:56:44.982Z,98.40
2018-12-31T06:59:32.428Z,98.40
2018-12-31T07:02:19.708Z,98.40
2018-12-31T07:05:07.473Z,98.50
2018-12-31T07:07:55.273Z,98.40
2018-12-31T07:10:42.891Z,98.30
2018-12-31T07:13:30.457Z,98.30
2018-12-31T07:16:18.130Z,98.40
2018-12-31T07:19:06.024Z,98.70
2018-12-31T07:21:54.281Z,98.80
2018-12-31T07:24:42.213Z,98.60
2018-12-31T07:27:29.997Z,98.50
2018-12-31T07:30:17.216Z,98.60
2018-12-31T07:33:04.861Z,98.50
2018-12-31T07:35:52.428Z,98.50
2018-12-31T07:38:40.156Z,98.70
2018-12-31T07:41:28.130Z,98.80
2018-12-31T07:44:16.058Z,98.70
2018-12-31T07:47:04.056Z,98.60
2018-12-31T07:49:51.439Z,98.50
2018-12-31T07:52:39.215Z,98.50
2018-12-31T07:55:26.585Z,98.60
2018-12-31T07:58:13.777Z,98.70
2018-12-31T08:01:01.867Z,98.70
2018-12-31T08:03:49.747Z,98.60
2018-12-31T08:06:37.969Z,98.70
2018-12-31T08:09:25.359Z,98.50
2018-12-31T08:12:12.844Z,98.50
2018-12-31T08:15:00.616Z,98.50
2018-12-31T08:17:48.490Z,98.40
2018-12-31T08:20:35.787Z,98.40
2018-12-31T08:23:23.491Z,98.30
2018-12-31T08:26:11.172Z,98.30
2018-12-31T08:28:58.931Z,98.40
2018-12-31T08:31:46.848Z,98.40
2018-12-31T08:34:34.156Z,98.30
2018-12-31T08:37:21.463Z,98.20
2018-12-31T08:40:09.196Z,98.30
2018-12-31T08:42:56.833Z,98.30
2018-12-31T08:45:44.904Z,98.20
2018-12-31T08:48:32.914Z,98.30
2018-12-31T08:51:20.466Z,98.30
2018-12-31T08:54:07.928Z,98.30
2018-12-31T08:56:55.747Z,98.30
2018-12-31T08:59:43.623Z,98.30
2018-12-31T09:02:30.950Z,98.30
2018-12-31T09:05:18.500Z,98.30
2018-12-31T09:08:06.017Z,98.20
2018-12-31T09:10:53.713Z,98.10
2018-12-31T09:13:41.309Z,98.30
2018-12-31T09:16:29.114Z,98.50
2018-12-31T09:19:16.396Z,98.50
2018-12-31T09:22:04.051Z,98.40
2018-12-31T09:24:51.585Z,98.30
2018-12-31T09:27:38.843Z,98.50
2018-12-31T09:30:26.686Z,98.60
2018-12-31T09:33:14.321Z,98.70
2018-12-31T09:36:01.727Z,98.70
2018-12-31T09:38:49.596Z,98.60
2018-12-31T09:41:37.555Z,98.70
2018-12-31T09:44:24.959Z,98.80
2018-12-31T09:47:12.341Z,98.80
2018-12-31T09:49:59.596Z,98.90
2018-12-31T09:52:47.212Z,98.90
2018-12-31T09:55:34.721Z,98.90
2018-12-31T09:58:22.288Z,98.80
2018-12-31T10:01:10.258Z,98.80
2018-12-31T10:03:58.205Z,98.80
2018-12-31T10:06:45.943Z,98.70
2018-12-31T10:09:33.641Z,98.60
2018-12-31T10:12:21.455Z,98.90
2018-12-31T10:15:09.163Z,98.90
2018-12-31T10:17:56.671Z,99.00
2018-12-31T10:20:44.121Z,99.10
2018-12-31T10:23:31.768Z,99.00
2018-12-31T10:26:19.778Z,98.90
2018-12-31T10:29:07.063Z,98.80
2018-12-31T10:31:54.741Z,98.90
2018-12-31T10:34:41.877Z,99.00
2018-12-31T10:37:29.449Z,98.90
2018-12-31T10:40:16.833Z,99.20
2018-12-31T10:43:05.248Z,99.40
2018-12-31T10:45:53.105Z,99.40
2018-12-31T10:48:40.824Z,99.50
2018-12-31T10:51:28.535Z,99.40
2018-12-31T10:54:16.103Z,99.40
2018-12-31T10:57:03.848Z,99.50
2018-12-31T10:59:52.012Z,99.60
2018-12-31T11:02:39.842Z,99.40
2018-12-31T11:05:27.715Z,99.40
2018-12-31T11:08:15.243Z,99.60
2018-12-31T11:11:03.306Z,99.60
2018-12-31T11:13:50.956Z,99.70
2018-12-31T11:16:38.629Z,99.70
2018-12-31T11:19:26.424Z,99.70
2018-12-31T11:22:14.016Z,99.60
2018-12-31T11:25:01.544Z,99.60
2018-12-31T11:27:49.213Z,99.60
2018-12-31T11:30:37.274Z,99.50
2018-12-31T11:33:24.857Z,99.60
2018-12-31T11:36:12.785Z,99.50
2018-12-31T11:39:00.585Z,99.50
2018-12-31T11:41:48.367Z,99.60
2018-12-31T11:44:35.961Z,99.60
2018-12-31T11:47:24.173Z,99.80
2018-12-31T11:50:12.035Z,99.90
2018-12-31T11:52:59.495Z,99.80
2018-12-31T11:55:46.946Z,99.80
2018-12-31T11:58:34.388Z,99.90
2018-12-31T12:01:21.790Z,99.90
2018-12-31T12:04:09.184Z,99.90
2018-12-31T12:06:56.583Z,99.80
2018-12-31T12:09:44.363Z,99.90
2018-12-31T12:12:31.968Z,99.90
2018-12-31T12:15:19.640Z,99.80
2018-12-31T12:18:06.888Z,99.70
2018-12-31T12:20:54.405Z,99.60
2018-12-31T12:23:42.039Z,99.80
2018-12-31T12:26:29.575Z,99.90
2018-12-31T12:29:17.079Z,99.90
2018-12-31T12:32:04.754Z,99.90
2018-12-31T12:34:52.605Z,99.90
2018-12-31T12:37:40.429Z,99.90
2018-12-31T12:40:28.104Z,99.90
2018-12-31T12:43:15.842Z,99.90
2018-12-31T12:46:03.687Z,99.90
2018-12-31T12:48:51.615Z,99.90
2018-12-31T12:51:39.479Z,99.90
2018-12-31T12:54:27.623Z,99.90
2018-12-31T12:57:15.767Z,99.90
2018-12-31T13:00:04.101Z,99.90
2018-12-31T13:02:52.148Z,99.90
2018-12-31T13:05:41.648Z,99.90
2018-12-31T13:08:29.429Z,99.90
2018-12-31T13:11:17.488Z,99.90
2018-12-31T13:14:05.121Z,99.90
2018-12-31T13:16:52.544Z,99.90
2018-12-31T13:19:39.757Z,99.90
2018-12-31T13:22:27.036Z,99.90
2018-12-31T13:25:14.540Z,99.90
2018-12-31T13:28:01.632Z,99.90
2018-12-31T13:30:49.065Z,99.90
2018-12-31T13:33:36.524Z,99.90
2018-12-31T13:36:25.250Z,99.90
2018-12-31T13:39:12.909Z,99.90
2018-12-31T13:42:00.745Z,99.90
2018-12-31T13:44:48.324Z,99.90
2018-12-31T13:47:35.822Z,99.90
2018-12-31T13:50:23.446Z,99.90
2018-12-31T13:53:10.891Z,99.90
2018-12-31T13:55:58.569Z,99.90
2018-12-31T13:58:46.135Z,99.90
2018-12-31T14:01:33.899Z,99.80
2018-12-31T14:04:22.306Z,99.70
2018-12-31T14:07:09.678Z,99.60
2018-12-31T14:09:57.522Z,99.60
2018-12-31T14:12:45.398Z,99.40
2018-12-31T14:15:37.791Z,99.30
2018-12-31T14:18:25.773Z,99.30
2018-12-31T14:21:13.609Z,99.30
2018-12-31T14:24:01.174Z,99.20
2018-12-31T14:26:49.297Z,99.20
2018-12-31T14:29:37.004Z,99.20
2018-12-31T14:32:25.026Z,99.20
2018-12-31T14:35:12.481Z,99.20
2018-12-31T14:38:00.036Z,99.10
2018-12-31T14:40:47.227Z,99.00
2018-12-31T14:43:35.239Z,99.00
2018-12-31T14:46:23.443Z,99.00
2018-12-31T14:49:11.179Z,99.00
2018-12-31T14:51:58.601Z,99.00
2018-12-31T14:54:46.096Z,99.00
2018-12-31T14:57:34.057Z,99.00
2018-12-31T15:00:21.439Z,99.00
2018-12-31T15:03:08.685Z,99.00
2018-12-31T15:05:56.634Z,99.00
2018-12-31T15:08:43.991Z,98.90
2018-12-31T15:11:31.903Z,98.90
2018-12-31T15:14:19.722Z,98.90
2018-12-31T15:17:07.876Z,98.90
2018-12-31T15:19:55.683Z,99.10
2018-12-31T15:22:43.264Z,99.10
2018-12-31T15:25:30.925Z,99.20
2018-12-31T15:28:18.794Z,99.30
2018-12-31T15:31:06.557Z,99.50
2018-12-31T15:33:54.407Z,99.70
2018-12-31T15:36:42.629Z,99.90
2018-12-31T15:39:30.119Z,99.90
2018-12-31T15:42:17.717Z,99.90
2018-12-31T15:45:07.690Z,99.90
2018-12-31T15:47:55.465Z,99.90
2018-12-31T15:50:43.161Z,99.90
2018-12-31T15:53:31.103Z,99.90
2018-12-31T15:56:18.806Z,99.90
2018-12-31T15:59:06.503Z,99.90
2018-12-31T16:01:54.039Z,99.90
2018-12-31T16:04:42.209Z,99.90
2018-12-31T16:07:30.746Z,99.80
2018-12-31T16:10:18.437Z,99.80
2018-12-31T16:13:08.908Z,99.70
2018-12-31T16:15:56.046Z,99.60
2018-12-31T16:18:43.563Z,99.50
2018-12-31T16:21:31.193Z,99.40
2018-12-31T16:24:19.430Z,99.40
2018-12-31T16:27:07.118Z,99.40
2018-12-31T16:29:54.907Z,99.50
2018-12-31T16:32:42.144Z,99.70
2018-12-31T16:35:29.739Z,99.90
2018-12-31T16:38:17.331Z,99.90
2018-12-31T16:41:04.894Z,99.90
2018-12-31T16:43:52.271Z,99.90
2018-12-31T16:46:39.907Z,99.90
2018-12-31T16:49:27.758Z,99.90
2018-12-31T16:52:15.360Z,99.90
2018-12-31T16:55:02.687Z,99.90
2018-12-31T16:57:50.644Z,99.90
2018-12-31T17:00:38.560Z,99.90
2018-12-31T17:03:26.208Z,99.90
2018-12-31T17:06:13.752Z,99.90
2018-12-31T17:09:01.726Z,99.90
2018-12-31T17:11:49.835Z,99.90
2018-12-31T17:14:37.137Z,99.90
2018-12-31T17:17:24.807Z,99.90
2018-12-31T17:20:12.723Z,99.90
2018-12-31T17:23:00.172Z,99.80
2018-12-31T17:25:47.700Z,99.90
2018-12-31T17:28:35.427Z,99.90
2018-12-31T17:31:23.766Z,99.90
2018-12-31T17:34:11.579Z,99.90
2018-12-31T17:36:58.957Z,99.90
2018-12-31T17:39:46.344Z,99.90
2018-12-31T17:42:33.954Z,99.90
2018-12-31T17:45:23.405Z,99.90
2018-12-31T17:48:11.417Z,99.90
2018-12-31T17:50:59.088Z,99.90
2018-12-31T17:53:46.782Z,99.90
2018-12-31T17:56:34.320Z,99.90
2018-12-31T17:59:22.280Z,99.90
2018-12-31T18:02:10.100Z,99.90
2018-12-31T18:04:57.743Z,99.90
2018-12-31T18:07:45.420Z,99.90
2018-12-31T18:10:32.752Z,99.90
2018-12-31T18:13:20.238Z,99.90
2018-12-31T18:16:08.141Z,99.90
2018-12-31T18:18:55.513Z,99.90
2018-12-31T18:21:43.316Z,99.90
2018-12-31T18:24:31.020Z,99.90
2018-12-31T18:27:18.515Z,99.90
2018-12-31T18:30:06.538Z,99.90
2018-12-31T18:32:53.805Z,99.90
2018-12-31T18:35:41.757Z,99.90
2018-12-31T18:38:29.175Z,99.80
2018-12-31T18:41:16.967Z,99.70
2018-12-31T18:44:04.916Z,99.60
2018-12-31T18:46:52.036Z,99.50
2018-12-31T18:49:39.479Z,99.40
2018-12-31T18:52:27.262Z,99.50
2018-12-31T18:55:14.935Z,99.60
2018-12-31T18:58:02.576Z,99.70
2018-12-31T19:00:50.202Z,99.80
2018-12-31T19:03:38.095Z,99.90
2018-12-31T19:06:25.590Z,99.90
2018-12-31T19:09:12.866Z,99.90
2018-12-31T19:12:00.419Z,99.90
2018-12-31T19:14:47.848Z,99.90
2018-12-31T19:17:35.534Z,99.90
2018-12-31T19:20:23.111Z,99.90
2018-12-31T19:23:11.064Z,99.90
2018-12-31T19:25:59.247Z,99.90
2018-12-31T19:28:47.078Z,99.90
2018-12-31T19:31:34.777Z,99.90
2018-12-31T19:34:22.911Z,99.90
2018-12-31T19:37:10.561Z,99.90
2018-12-31T19:39:58.087Z,99.90
2018-12-31T19:42:45.855Z,99.90
2018-12-31T19:45:34.084Z,99.90
2018-12-31T19:48:22.113Z,99.90
2018-12-31T19:51:09.534Z,99.90
2018-12-31T19:53:57.091Z,99.90
2018-12-31T19:56:44.974Z,99.90
2018-12-31T19:59:32.935Z,99.90
2018-12-31T20:02:20.502Z,99.90
2018-12-31T20:05:08.268Z,99.90
2018-12-31T20:07:55.827Z,99.90
2018-12-31T20:10:43.686Z,99.90
2018-12-31T20:13:31.635Z,99.90
2018-12-31T20:16:19.637Z,99.90
2018-12-31T20:19:07.193Z,99.90
2018-12-31T20:21:55.360Z,99.90
2018-12-31T20:24:42.841Z,99.90
2018-12-31T20:27:30.687Z,99.90
2018-12-31T20:30:18.054Z,99.90
2018-12-31T20:33:05.352Z,99.90
2018-12-31T20:35:53.390Z,99.90
2018-12-31T20:38:41.327Z,99.70
2018-12-31T20:41:29.059Z,99.60
2018-12-31T20:44:16.637Z,99.60
2018-12-31T20:47:04.681Z,99.50
2018-12-31T20:49:52.397Z,99.50
2018-12-31T20:52:40.651Z,99.40
2018-12-31T20:55:28.580Z,99.30
2018-12-31T20:58:16.231Z,99.30
2018-12-31T21:01:03.777Z,99.20
2018-12-31T21:03:51.108Z,99.20
2018-12-31T21:06:39.050Z,99.10
2018-12-31T21:09:26.765Z,99.10
2018-12-31T21:12:14.411Z,99.00
2018-12-31T21:15:02.175Z,98.90
2018-12-31T21:17:49.777Z,98.90
2018-12-31T21:20:37.128Z,98.80
2018-12-31T21:23:24.884Z,98.80
2018-12-31T21:26:12.331Z,98.80
2018-12-31T21:29:00.303Z,98.70
2018-12-31T21:31:48.108Z,98.70
2018-12-31T21:34:35.979Z,98.60
2018-12-31T21:37:23.575Z,98.60
2018-12-31T21:40:11.295Z,98.70
2018-12-31T21:42:59.245Z,98.60
2018-12-31T21:45:46.840Z,98.60
2018-12-31T21:48:34.191Z,98.50
2018-12-31T21:51:21.918Z,98.40
2018-12-31T21:54:09.305Z,98.40
2018-12-31T21:56:57.466Z,98.40
2018-12-31T21:59:45.149Z,98.40
2018-12-31T22:02:32.818Z,98.30
2018-12-31T22:05:21.025Z,98.30
2018-12-31T22:08:09.143Z,98.30
2018-12-31T22:10:57.004Z,98.30
2018-12-31T22:13:44.963Z,98.30
2018-12-31T22:16:33.054Z,98.30
2018-12-31T22:19:20.759Z,98.30
2018-12-31T22:22:08.832Z,98.30
2018-12-31T22:24:56.618Z,98.10
2018-12-31T22:27:44.309Z,98.00
2018-12-31T22:30:32.260Z,98.10
2018-12-31T22:33:20.083Z,98.00
2018-12-31T22:36:07.688Z,98.00
2018-12-31T22:38:57.825Z,98.00
2018-12-31T22:41:45.481Z,98.00
2018-12-31T22:44:33.185Z,98.00
2018-12-31T22:47:21.084Z,98.00
2018-12-31T22:50:10.863Z,97.90
2018-12-31T22:52:59.100Z,97.90
2018-12-31T22:55:47.057Z,97.70
2018-12-31T22:58:34.600Z,97.70
2018-12-31T23:01:22.622Z,97.70
2018-12-31T23:04:10.351Z,97.70
2018-12-31T23:07:01.660Z,97.70
2018-12-31T23:09:49.486Z,97.70
2018-12-31T23:12:36.948Z,97.60
2018-12-31T23:15:25.895Z,97.60
2018-12-31T23:18:13.908Z,97.50
2018-12-31T23:21:01.896Z,97.50
2018-12-31T23:23:49.136Z,97.40
2018-12-31T23:26:36.902Z,97.50
2018-12-31T23:29:24.556Z,97.40
2018-12-31T23:32:12.375Z,97.50
2018-12-31T23:34:59.930Z,97.30
2018-12-31T23:37:47.542Z,97.50
2018-12-31T23:40:36.147Z,97.50
2018-12-31T23:43:23.873Z,97.50
2018-12-31T23:46:11.432Z,97.40
2018-12-31T23:48:59.366Z,97.40
2018-12-31T23:51:46.933Z,97.40
2018-12-31T23:54:34.664Z,97.40
2018-12-31T23:57:22.456Z,97.50
